Map

Track Data

SID SEASON NUMBER BASIN SUBBASIN NAME ISO_TIME NATURE LAT LON WMO_WIND WMO_PRES WMO_AGENCY TRACK_TYPE DIST2LAND LANDFALL IFLAG USA_AGENCY USA_ATCF_ID USA_LAT USA_LON USA_RECORD USA_STATUS USA_WIND USA_PRES USA_SSHS USA_R34_NE USA_R34_SE USA_R34_SW USA_R34_NW USA_R50_NE USA_R50_SE USA_R50_SW USA_R50_NW USA_R64_NE USA_R64_SE USA_R64_SW USA_R64_NW USA_POCI USA_ROCI USA_RMW USA_EYE TOKYO_LAT TOKYO_LON TOKYO_GRADE TOKYO_WIND TOKYO_PRES TOKYO_R50_DIR TOKYO_R50_LONG TOKYO_R50_SHORT TOKYO_R30_DIR TOKYO_R30_LONG TOKYO_R30_SHORT TOKYO_LAND CMA_LAT CMA_LON CMA_CAT CMA_WIND CMA_PRES HKO_LAT HKO_LON HKO_CAT HKO_WIND HKO_PRES NEWDELHI_LAT NEWDELHI_LON NEWDELHI_GRADE NEWDELHI_WIND NEWDELHI_PRES NEWDELHI_CI NEWDELHI_DP NEWDELHI_POCI REUNION_LAT REUNION_LON REUNION_TYPE REUNION_WIND REUNION_PRES REUNION_TNUM REUNION_CI REUNION_RMW REUNION_R34_NE REUNION_R34_SE REUNION_R34_SW REUNION_R34_NW REUNION_R50_NE REUNION_R50_SE REUNION_R50_SW REUNION_R50_NW REUNION_R64_NE REUNION_R64_SE REUNION_R64_SW REUNION_R64_NW BOM_LAT BOM_LON BOM_TYPE BOM_WIND BOM_PRES BOM_TNUM BOM_CI BOM_RMW BOM_R34_NE BOM_R34_SE BOM_R34_SW BOM_R34_NW BOM_R50_NE BOM_R50_SE BOM_R50_SW BOM_R50_NW BOM_R64_NE BOM_R64_SE BOM_R64_SW BOM_R64_NW BOM_ROCI BOM_POCI BOM_EYE BOM_POS_METHOD BOM_PRES_METHOD NADI_LAT NADI_LON NADI_CAT NADI_WIND NADI_PRES WELLINGTON_LAT WELLINGTON_LON WELLINGTON_WIND WELLINGTON_PRES DS824_LAT DS824_LON DS824_STAGE DS824_WIND DS824_PRES TD9636_LAT TD9636_LON TD9636_STAGE TD9636_WIND TD9636_PRES TD9635_LAT TD9635_LON TD9635_WIND TD9635_PRES TD9635_ROCI NEUMANN_LAT NEUMANN_LON NEUMANN_CLASS NEUMANN_WIND NEUMANN_PRES MLC_LAT MLC_LON MLC_CLASS MLC_WIND MLC_PRES USA_GUST BOM_GUST BOM_GUST_PER REUNION_GUST REUNION_GUST_PER USA_SEAHGT USA_SEARAD_NE USA_SEARAD_SE USA_SEARAD_SW USA_SEARAD_NW STORM_SPEED STORM_DIR
1911234N15115 1911 53 WP MM NOT_NAMED 1911-08-21 16:00:00 NR 15.3000 114.800 main 530 530 __________O___ -1 15.3000 114.800 2 1 0
1911234N15115 1911 53 WP MM NOT_NAMED 1911-08-21 18:00:00 NR 15.2998 114.775 main 530 530 __________P___ -1 15.2998 114.775 2 1 270
1911234N15115 1911 53 WP MM NOT_NAMED 1911-08-21 21:00:00 NR 15.2996 114.716 main 541 541 __________P___ -1 15.2996 114.716 2 2 270
1911234N15115 1911 53 WP MM NOT_NAMED 1911-08-22 00:00:00 NR 15.2996 114.600 main 551 551 __________P___ -1 15.2996 114.600 2 3 270
1911234N15115 1911 53 WP MM NOT_NAMED 1911-08-22 03:00:00 NR 15.2999 114.394 main 570 560 __________P___ -1 15.2999 114.394 2 4 270
1911234N15115 1911 53 WP MM NOT_NAMED 1911-08-22 04:00:00 NR 15.3000 114.300 main 560 539 __________O___ -1 15.3000 114.300 2 6 270
1911234N15115 1911 53 WP MM NOT_NAMED 1911-08-22 06:00:00 NR 15.3002 114.068 main 539 488 __________P___ -1 15.3002 114.068 2 8 270
1911234N15115 1911 53 WP MM NOT_NAMED 1911-08-22 09:00:00 NR 15.3004 113.633 main 488 435 __________P___ -1 15.3004 113.633 2 9 270
1911234N15115 1911 53 WP MM NOT_NAMED 1911-08-22 12:00:00 NR 15.3003 113.125 main 435 382 __________P___ -1 15.3003 113.125 2 10 270
1911234N15115 1911 53 WP MM NOT_NAMED 1911-08-22 15:00:00 NR 15.3000 112.582 main 382 360 __________P___ -1 15.3000 112.582 2 11 270
1911234N15115 1911 53 WP MM NOT_NAMED 1911-08-22 16:00:00 NR 15.3000 112.400 main 360 329 __________O___ -1 15.3000 112.400 2 10 268
1911234N15115 1911 53 WP MM NOT_NAMED 1911-08-22 18:00:00 NR 15.2840 112.069 main 329 276 __________P___ -1 15.2840 112.069 2 10 267
1911234N15115 1911 53 WP MM NOT_NAMED 1911-08-22 21:00:00 NR 15.2597 111.560 main 276 214 __________P___ -1 15.2597 111.560 2 10 268
1911234N15115 1911 53 WP MM NOT_NAMED 1911-08-23 00:00:00 NR 15.2520 111.034 main 214 164 __________P___ -1 15.2520 111.034 2 10 271
1911234N15115 1911 53 WP MM NOT_NAMED 1911-08-23 03:00:00 NR 15.2797 110.487 main 164 145 __________P___ -1 15.2797 110.487 2 11 274
1911234N15115 1911 53 WP MM NOT_NAMED 1911-08-23 04:00:00 NR 15.3000 110.300 main 145 109 __________O___ -1 15.3000 110.300 2 11 279
1911234N15115 1911 53 WP MM NOT_NAMED 1911-08-23 06:00:00 NR 15.3629 109.920 main 109 54 __________P___ -1 15.3629 109.920 2 11 282
1911234N15115 1911 53 WP MM NOT_NAMED 1911-08-23 09:00:00 NR 15.4952 109.331 main 54 24 __________P___ -1 15.4952 109.331 2 12 284
1911234N15115 1911 53 WP MM NOT_NAMED 1911-08-23 12:00:00 NR 15.6591 108.724 main 24 0 __________P___ -1 15.6591 108.724 2 12 286
1911234N15115 1911 53 WP MM NOT_NAMED 1911-08-23 15:00:00 NR 15.8391 108.107 main 0 0 __________P___ -1 15.8391 108.107 2 12 287
1911234N15115 1911 53 WP MM NOT_NAMED 1911-08-23 16:00:00 NR 15.9000 107.900 main 0 0 __________O___ -1 15.9000 107.900 2 13 287
1911234N15115 1911 53 WP MM NOT_NAMED 1911-08-23 18:00:00 NR 16.0205 107.485 main 0 0 __________P___ -1 16.0205 107.485 2 13 287
1911234N15115 1911 53 WP MM NOT_NAMED 1911-08-23 21:00:00 NR 16.1980 106.861 main 0 0 __________P___ -1 16.1980 106.861 2 13 286
1911234N15115 1911 53 WP MM NOT_NAMED 1911-08-24 00:00:00 NR 16.3721 106.236 main 0 0 __________P___ -1 16.3721 106.236 2 13 286
1911234N15115 1911 53 WP MM NOT_NAMED 1911-08-24 03:00:00 NR 16.5434 105.609 main 0 0 __________P___ -1 16.5434 105.609 2 13 286
1911234N15115 1911 53 WP MM NOT_NAMED 1911-08-24 04:00:00 NR 16.6000 105.400 main 0 __________O___ -1 16.6000 105.400 7 13 286

Digital Typhoon Data and Search

About IBTrACS Database

This database is a web-friendly format of International Best Track Archive for Climate Stewardship (IBTrACS), a global best track data archive curated by NOAA dating back to 1842.

Updated: 2021-12-03